sensor_id;sensor_type;location;lat;lon;timestamp;pressure;altitude;pressure_sealevel;temperature;humidity
60646;BME280;46462;32.608;-117.032;2023-05-11T00:00:10;99534.71;;;24.36;41.10
60646;BME280;46462;32.608;-117.032;2023-05-11T00:02:40;99536.13;;;24.35;41.07
60646;BME280;46462;32.608;-117.032;2023-05-11T00:05:10;99541.22;;;24.36;41.22
60646;BME280;46462;32.608;-117.032;2023-05-11T00:07:41;99543.55;;;24.33;41.35
60646;BME280;46462;32.608;-117.032;2023-05-11T00:10:12;99543.65;;;24.27;41.52
60646;BME280;46462;32.608;-117.032;2023-05-11T00:12:42;99543.72;;;24.23;41.51
60646;BME280;46462;32.608;-117.032;2023-05-11T00:15:13;99544.08;;;24.17;41.63
60646;BME280;46462;32.608;-117.032;2023-05-11T00:17:44;99546.15;;;24.19;41.63
60646;BME280;46462;32.608;-117.032;2023-05-11T00:20:14;99545.05;;;24.10;41.75
60646;BME280;46462;32.608;-117.032;2023-05-11T00:22:45;99545.66;;;24.08;41.74
60646;BME280;46462;32.608;-117.032;2023-05-11T00:25:15;99545.29;;;24.05;41.76
60646;BME280;46462;32.608;-117.032;2023-05-11T00:27:46;99546.12;;;24.00;41.80
60646;BME280;46462;32.608;-117.032;2023-05-11T00:30:16;99547.42;;;24.01;41.80
60646;BME280;46462;32.608;-117.032;2023-05-11T00:32:46;99546.06;;;24.01;41.75
60646;BME280;46462;32.608;-117.032;2023-05-11T00:35:17;99547.42;;;23.95;41.96
60646;BME280;46462;32.608;-117.032;2023-05-11T00:37:47;99552.29;;;23.95;41.81
60646;BME280;46462;32.608;-117.032;2023-05-11T00:40:18;99551.55;;;23.95;41.92
60646;BME280;46462;32.608;-117.032;2023-05-11T00:42:49;99554.40;;;23.94;41.79
60646;BME280;46462;32.608;-117.032;2023-05-11T00:45:19;99553.21;;;23.90;41.88
60646;BME280;46462;32.608;-117.032;2023-05-11T00:47:50;99556.84;;;23.92;41.88
60646;BME280;46462;32.608;-117.032;2023-05-11T00:50:21;99554.72;;;23.91;41.76
60646;BME280;46462;32.608;-117.032;2023-05-11T00:52:51;99552.63;;;23.91;41.81
60646;BME280;46462;32.608;-117.032;2023-05-11T00:55:22;99551.14;;;23.85;41.86
60646;BME280;46462;32.608;-117.032;2023-05-11T00:57:52;99553.00;;;23.86;41.81
60646;BME280;46462;32.608;-117.032;2023-05-11T01:00:23;99556.58;;;23.85;41.79
60646;BME280;46462;32.608;-117.032;2023-05-11T01:02:54;99556.53;;;23.85;41.82
60646;BME280;46462;32.608;-117.032;2023-05-11T01:05:31;99556.16;;;23.80;41.88
60646;BME280;46462;32.608;-117.032;2023-05-11T01:08:01;99565.81;;;23.86;41.93
60646;BME280;46462;32.608;-117.032;2023-05-11T01:10:30;99567.70;;;23.93;41.52
60646;BME280;46462;32.608;-117.032;2023-05-11T01:13:04;99567.71;;;23.88;41.61
60646;BME280;46462;32.608;-117.032;2023-05-11T01:15:32;99565.49;;;23.89;41.60
60646;BME280;46462;32.608;-117.032;2023-05-11T01:18:03;99571.89;;;23.84;41.69
60646;BME280;46462;32.608;-117.032;2023-05-11T01:20:29;99576.02;;;23.78;41.82
60646;BME280;46462;32.608;-117.032;2023-05-11T01:25:41;99573.93;;;23.82;41.66
60646;BME280;46462;32.608;-117.032;2023-05-11T01:30:35;99577.88;;;23.77;41.82
60646;BME280;46462;32.608;-117.032;2023-05-11T01:33:06;99577.14;;;23.76;41.78
60646;BME280;46462;32.608;-117.032;2023-05-11T01:35:34;99576.70;;;23.77;41.81
60646;BME280;46462;32.608;-117.032;2023-05-11T01:38:04;99576.60;;;23.76;41.79
60646;BME280;46462;32.608;-117.032;2023-05-11T01:40:35;99578.16;;;23.76;41.80
60646;BME280;46462;32.608;-117.032;2023-05-11T01:43:06;99579.91;;;23.75;41.87
60646;BME280;46462;32.608;-117.032;2023-05-11T01:45:37;99578.70;;;23.72;41.90
60646;BME280;46462;32.608;-117.032;2023-05-11T01:48:08;99579.50;;;23.69;42.00
60646;BME280;46462;32.608;-117.032;2023-05-11T01:50:37;99583.67;;;23.70;41.95
60646;BME280;46462;32.608;-117.032;2023-05-11T01:53:07;99589.31;;;23.68;42.03
60646;BME280;46462;32.608;-117.032;2023-05-11T01:55:37;99595.53;;;23.59;42.18
60646;BME280;46462;32.608;-117.032;2023-05-11T01:58:09;99597.49;;;23.60;42.19
60646;BME280;46462;32.608;-117.032;2023-05-11T02:00:39;99595.55;;;23.55;42.30
60646;BME280;46462;32.608;-117.032;2023-05-11T02:03:10;99597.47;;;23.60;42.24
60646;BME280;46462;32.608;-117.032;2023-05-11T02:05:40;99599.09;;;23.59;42.32
60646;BME280;46462;32.608;-117.032;2023-05-11T02:08:11;99600.63;;;23.62;42.15
60646;BME280;46462;32.608;-117.032;2023-05-11T02:10:41;99595.07;;;23.50;42.40
60646;BME280;46462;32.608;-117.032;2023-05-11T02:13:13;99597.76;;;23.44;42.51
60646;BME280;46462;32.608;-117.032;2023-05-11T02:15:43;99597.91;;;23.52;42.38
60646;BME280;46462;32.608;-117.032;2023-05-11T02:18:14;99598.02;;;23.47;42.52
60646;BME280;46462;32.608;-117.032;2023-05-11T02:20:45;99599.40;;;23.49;42.44
60646;BME280;46462;32.608;-117.032;2023-05-11T02:23:16;99600.01;;;23.45;42.55
60646;BME280;46462;32.608;-117.032;2023-05-11T02:25:46;99602.91;;;23.44;42.62
60646;BME280;46462;32.608;-117.032;2023-05-11T02:28:16;99603.59;;;23.49;42.50
60646;BME280;46462;32.608;-117.032;2023-05-11T02:30:49;99603.81;;;23.45;42.56
60646;BME280;46462;32.608;-117.032;2023-05-11T02:33:20;99604.78;;;23.39;42.68
60646;BME280;46462;32.608;-117.032;2023-05-11T02:35:50;99604.49;;;23.38;42.73
60646;BME280;46462;32.608;-117.032;2023-05-11T02:38:19;99604.10;;;23.32;42.87
60646;BME280;46462;32.608;-117.032;2023-05-11T02:40:53;99605.24;;;23.33;42.85
60646;BME280;46462;32.608;-117.032;2023-05-11T02:43:23;99607.97;;;23.28;42.91
60646;BME280;46462;32.608;-117.032;2023-05-11T02:45:53;99612.16;;;23.34;42.78
60646;BME280;46462;32.608;-117.032;2023-05-11T02:48:25;99615.41;;;23.23;43.04
60646;BME280;46462;32.608;-117.032;2023-05-11T02:50:52;99617.24;;;23.35;42.79
60646;BME280;46462;32.608;-117.032;2023-05-11T02:53:25;99616.08;;;23.28;42.87
60646;BME280;46462;32.608;-117.032;2023-05-11T02:55:53;99617.27;;;23.25;42.91
60646;BME280;46462;32.608;-117.032;2023-05-11T02:58:23;99617.83;;;23.21;43.00
60646;BME280;46462;32.608;-117.032;2023-05-11T03:00:54;99618.79;;;23.26;42.94
60646;BME280;46462;32.608;-117.032;2023-05-11T03:03:25;99619.04;;;23.19;43.12
60646;BME280;46462;32.608;-117.032;2023-05-11T03:05:55;99624.63;;;23.25;42.97
60646;BME280;46462;32.608;-117.032;2023-05-11T03:08:26;99624.39;;;23.31;42.73
60646;BME280;46462;32.608;-117.032;2023-05-11T03:10:57;99628.23;;;23.34;42.64
60646;BME280;46462;32.608;-117.032;2023-05-11T03:13:28;99630.39;;;23.26;42.89
60646;BME280;46462;32.608;-117.032;2023-05-11T03:15:59;99628.77;;;23.29;42.77
60646;BME280;46462;32.608;-117.032;2023-05-11T03:18:29;99627.52;;;23.22;42.94
60646;BME280;46462;32.608;-117.032;2023-05-11T03:21:00;99628.35;;;23.25;42.87
60646;BME280;46462;32.608;-117.032;2023-05-11T03:23:30;99625.61;;;23.19;42.97
60646;BME280;46462;32.608;-117.032;2023-05-11T03:26:01;99627.73;;;23.15;43.07
60646;BME280;46462;32.608;-117.032;2023-05-11T03:28:32;99631.06;;;23.19;43.00
60646;BME280;46462;32.608;-117.032;2023-05-11T03:31:02;99632.12;;;23.31;42.66
60646;BME280;46462;32.608;-117.032;2023-05-11T03:33:32;99630.83;;;23.27;42.76
60646;BME280;46462;32.608;-117.032;2023-05-11T03:36:04;99629.34;;;23.16;42.94
60646;BME280;46462;32.608;-117.032;2023-05-11T03:38:35;99631.00;;;23.11;43.06
60646;BME280;46462;32.608;-117.032;2023-05-11T03:41:05;99633.91;;;23.04;43.21
60646;BME280;46462;32.608;-117.032;2023-05-11T03:43:36;99630.55;;;23.07;43.12
60646;BME280;46462;32.608;-117.032;2023-05-11T03:46:06;99628.51;;;23.06;43.16
60646;BME280;46462;32.608;-117.032;2023-05-11T03:48:37;99624.87;;;23.08;43.05
60646;BME280;46462;32.608;-117.032;2023-05-11T03:51:09;99624.40;;;23.11;42.99
60646;BME280;46462;32.608;-117.032;2023-05-11T03:53:38;99627.20;;;23.04;43.10
60646;BME280;46462;32.608;-117.032;2023-05-11T03:56:09;99625.14;;;23.00;43.17
60646;BME280;46462;32.608;-117.032;2023-05-11T03:58:40;99623.95;;;23.01;43.15
60646;BME280;46462;32.608;-117.032;2023-05-11T04:01:12;99626.34;;;23.04;43.09
60646;BME280;46462;32.608;-117.032;2023-05-11T04:03:46;99625.32;;;22.94;43.32
60646;BME280;46462;32.608;-117.032;2023-05-11T04:06:11;99623.52;;;22.97;43.22
60646;BME280;46462;32.608;-117.032;2023-05-11T04:08:42;99621.59;;;23.01;43.10
60646;BME280;46462;32.608;-117.032;2023-05-11T04:11:13;99622.58;;;22.94;43.17
60646;BME280;46462;32.608;-117.032;2023-05-11T04:13:44;99626.22;;;22.94;43.21
60646;BME280;46462;32.608;-117.032;2023-05-11T04:16:14;99624.11;;;22.98;43.15
60646;BME280;46462;32.608;-117.032;2023-05-11T04:18:45;99623.61;;;22.91;43.25
60646;BME280;46462;32.608;-117.032;2023-05-11T04:21:16;99622.91;;;23.04;42.92
60646;BME280;46462;32.608;-117.032;2023-05-11T04:23:46;99622.79;;;22.99;43.06
60646;BME280;46462;32.608;-117.032;2023-05-11T04:26:17;99622.08;;;22.88;43.24
60646;BME280;46462;32.608;-117.032;2023-05-11T04:28:48;99625.36;;;22.85;43.28
60646;BME280;46462;32.608;-117.032;2023-05-11T04:31:19;99625.14;;;22.85;43.25
60646;BME280;46462;32.608;-117.032;2023-05-11T04:33:49;99629.98;;;22.89;43.15
60646;BME280;46462;32.608;-117.032;2023-05-11T04:36:20;99632.55;;;22.83;43.26
60646;BME280;46462;32.608;-117.032;2023-05-11T04:38:51;99632.43;;;22.89;43.08
60646;BME280;46462;32.608;-117.032;2023-05-11T04:41:21;99632.26;;;22.93;43.00
60646;BME280;46462;32.608;-117.032;2023-05-11T04:43:52;99630.64;;;22.86;43.10
60646;BME280;46462;32.608;-117.032;2023-05-11T04:46:23;99631.24;;;22.91;42.98
60646;BME280;46462;32.608;-117.032;2023-05-11T04:48:53;99631.75;;;22.94;42.90
60646;BME280;46462;32.608;-117.032;2023-05-11T04:51:24;99630.81;;;22.86;43.07
60646;BME280;46462;32.608;-117.032;2023-05-11T04:53:55;99632.56;;;22.83;43.08
60646;BME280;46462;32.608;-117.032;2023-05-11T04:56:26;99632.42;;;22.84;43.04
60646;BME280;46462;32.608;-117.032;2023-05-11T04:58:56;99634.40;;;22.82;43.07
60646;BME280;46462;32.608;-117.032;2023-05-11T05:01:27;99635.16;;;22.82;43.05
60646;BME280;46462;32.608;-117.032;2023-05-11T05:03:58;99636.88;;;22.88;42.89
60646;BME280;46462;32.608;-117.032;2023-05-11T05:06:28;99637.59;;;22.82;42.99
60646;BME280;46462;32.608;-117.032;2023-05-11T05:08:59;99636.13;;;22.89;42.80
60646;BME280;46462;32.608;-117.032;2023-05-11T05:11:30;99635.66;;;22.87;42.86
60646;BME280;46462;32.608;-117.032;2023-05-11T05:14:01;99634.68;;;22.77;43.01
60646;BME280;46462;32.608;-117.032;2023-05-11T05:16:31;99635.44;;;22.77;42.99
60646;BME280;46462;32.608;-117.032;2023-05-11T05:19:02;99632.53;;;22.87;42.74
60646;BME280;46462;32.608;-117.032;2023-05-11T05:21:33;99629.60;;;22.76;42.93
60646;BME280;46462;32.608;-117.032;2023-05-11T05:24:04;99630.35;;;22.90;42.64
60646;BME280;46462;32.608;-117.032;2023-05-11T05:26:34;99627.24;;;22.90;42.57
60646;BME280;46462;32.608;-117.032;2023-05-11T05:29:05;99624.09;;;22.85;42.66
60646;BME280;46462;32.608;-117.032;2023-05-11T05:31:35;99620.39;;;22.81;42.72
60646;BME280;46462;32.608;-117.032;2023-05-11T05:34:06;99619.10;;;22.83;42.67
60646;BME280;46462;32.608;-117.032;2023-05-11T05:36:37;99621.31;;;22.83;42.63
60646;BME280;46462;32.608;-117.032;2023-05-11T05:39:08;99621.77;;;22.77;42.71
60646;BME280;46462;32.608;-117.032;2023-05-11T05:41:38;99625.53;;;22.84;42.56
60646;BME280;46462;32.608;-117.032;2023-05-11T05:44:09;99623.82;;;22.77;42.69
60646;BME280;46462;32.608;-117.032;2023-05-11T05:46:40;99621.14;;;22.82;42.54
60646;BME280;46462;32.608;-117.032;2023-05-11T05:49:10;99619.35;;;22.73;42.69
60646;BME280;46462;32.608;-117.032;2023-05-11T05:51:41;99618.82;;;22.76;42.63
60646;BME280;46462;32.608;-117.032;2023-05-11T05:54:12;99616.24;;;22.70;42.71
60646;BME280;46462;32.608;-117.032;2023-05-11T05:56:43;99615.72;;;22.73;42.62
60646;BME280;46462;32.608;-117.032;2023-05-11T05:59:13;99614.39;;;22.70;42.65
60646;BME280;46462;32.608;-117.032;2023-05-11T06:01:44;99612.19;;;22.75;42.51
60646;BME280;46462;32.608;-117.032;2023-05-11T06:04:15;99611.34;;;22.80;42.38
60646;BME280;46462;32.608;-117.032;2023-05-11T06:06:45;99609.68;;;22.86;42.23
60646;BME280;46462;32.608;-117.032;2023-05-11T06:09:16;99612.03;;;22.82;42.25
60646;BME280;46462;32.608;-117.032;2023-05-11T06:11:47;99613.34;;;22.82;42.22
60646;BME280;46462;32.608;-117.032;2023-05-11T06:14:18;99607.89;;;22.79;42.23
60646;BME280;46462;32.608;-117.032;2023-05-11T06:16:48;99608.12;;;22.81;42.17
60646;BME280;46462;32.608;-117.032;2023-05-11T06:19:19;99606.70;;;22.74;42.26
60646;BME280;46462;32.608;-117.032;2023-05-11T06:21:50;99606.82;;;22.71;42.31
60646;BME280;46462;32.608;-117.032;2023-05-11T06:24:20;99606.00;;;22.78;42.14
60646;BME280;46462;32.608;-117.032;2023-05-11T06:26:51;99603.37;;;22.75;42.14
60646;BME280;46462;32.608;-117.032;2023-05-11T06:29:22;99605.40;;;22.75;42.12
60646;BME280;46462;32.608;-117.032;2023-05-11T06:31:53;99604.31;;;22.74;42.11
60646;BME280;46462;32.608;-117.032;2023-05-11T06:34:23;99603.95;;;22.69;42.18
60646;BME280;46462;32.608;-117.032;2023-05-11T06:36:54;99601.20;;;22.63;42.28
60646;BME280;46462;32.608;-117.032;2023-05-11T06:39:25;99598.88;;;22.57;42.40
60646;BME280;46462;32.608;-117.032;2023-05-11T06:41:56;99596.95;;;22.57;42.36
60646;BME280;46462;32.608;-117.032;2023-05-11T06:44:26;99596.54;;;22.58;42.30
60646;BME280;46462;32.608;-117.032;2023-05-11T06:46:57;99594.81;;;22.59;42.26
60646;BME280;46462;32.608;-117.032;2023-05-11T06:49:28;99590.93;;;22.56;42.28
60646;BME280;46462;32.608;-117.032;2023-05-11T06:51:58;99592.72;;;22.61;42.16
60646;BME280;46462;32.608;-117.032;2023-05-11T06:54:29;99591.52;;;22.52;42.31
60646;BME280;46462;32.608;-117.032;2023-05-11T06:57:00;99590.17;;;22.51;42.27
60646;BME280;46462;32.608;-117.032;2023-05-11T06:59:31;99592.84;;;22.54;42.19
60646;BME280;46462;32.608;-117.032;2023-05-11T07:02:01;99595.19;;;22.59;42.05
60646;BME280;46462;32.608;-117.032;2023-05-11T07:04:32;99594.77;;;22.53;42.12
60646;BME280;46462;32.608;-117.032;2023-05-11T07:07:03;99592.20;;;22.59;41.96
60646;BME280;46462;32.608;-117.032;2023-05-11T07:09:34;99592.40;;;22.62;41.86
60646;BME280;46462;32.608;-117.032;2023-05-11T07:12:05;99591.57;;;22.58;41.92
60646;BME280;46462;32.608;-117.032;2023-05-11T07:14:35;99591.46;;;22.49;42.08
60646;BME280;46462;32.608;-117.032;2023-05-11T07:17:06;99587.73;;;22.51;42.02
60646;BME280;46462;32.608;-117.032;2023-05-11T07:19:36;99584.14;;;22.55;41.90
60646;BME280;46462;32.608;-117.032;2023-05-11T07:22:07;99580.26;;;22.52;41.90
60646;BME280;46462;32.608;-117.032;2023-05-11T07:24:38;99576.03;;;22.47;41.99
60646;BME280;46462;32.608;-117.032;2023-05-11T07:27:09;99571.76;;;22.55;41.79
60646;BME280;46462;32.608;-117.032;2023-05-11T07:29:40;99565.71;;;22.54;41.76
60646;BME280;46462;32.608;-117.032;2023-05-11T07:32:10;99563.74;;;22.51;41.80
60646;BME280;46462;32.608;-117.032;2023-05-11T07:34:41;99561.29;;;22.43;41.96
60646;BME280;46462;32.608;-117.032;2023-05-11T07:37:11;99560.44;;;22.43;41.92
60646;BME280;46462;32.608;-117.032;2023-05-11T07:39:42;99559.04;;;22.48;41.76
60646;BME280;46462;32.608;-117.032;2023-05-11T07:42:13;99557.84;;;22.46;41.77
60646;BME280;46462;32.608;-117.032;2023-05-11T07:44:44;99557.62;;;22.43;41.81
60646;BME280;46462;32.608;-117.032;2023-05-11T07:47:14;99556.74;;;22.49;41.67
60646;BME280;46462;32.608;-117.032;2023-05-11T07:49:45;99560.57;;;22.42;41.78
60646;BME280;46462;32.608;-117.032;2023-05-11T07:52:16;99559.65;;;22.47;41.63
60646;BME280;46462;32.608;-117.032;2023-05-11T07:54:47;99558.47;;;22.42;41.70
60646;BME280;46462;32.608;-117.032;2023-05-11T07:57:18;99555.93;;;22.40;41.71
60646;BME280;46462;32.608;-117.032;2023-05-11T07:59:48;99552.76;;;22.39;41.72
60646;BME280;46462;32.608;-117.032;2023-05-11T08:02:19;99551.13;;;22.44;41.56
60646;BME280;46462;32.608;-117.032;2023-05-11T08:04:50;99549.83;;;22.44;41.53
60646;BME280;46462;32.608;-117.032;2023-05-11T08:07:20;99553.43;;;22.41;41.57
60646;BME280;46462;32.608;-117.032;2023-05-11T08:09:51;99552.36;;;22.37;41.62
60646;BME280;46462;32.608;-117.032;2023-05-11T08:12:22;99552.66;;;22.42;41.49
60646;BME280;46462;32.608;-117.032;2023-05-11T08:14:53;99549.98;;;22.40;41.48
60646;BME280;46462;32.608;-117.032;2023-05-11T08:17:23;99548.49;;;22.38;41.51
60646;BME280;46462;32.608;-117.032;2023-05-11T08:19:54;99546.12;;;22.39;41.47
60646;BME280;46462;32.608;-117.032;2023-05-11T08:22:25;99543.91;;;22.35;41.51
60646;BME280;46462;32.608;-117.032;2023-05-11T08:24:55;99539.89;;;22.31;41.57
60646;BME280;46462;32.608;-117.032;2023-05-11T08:27:26;99535.20;;;22.29;41.61
60646;BME280;46462;32.608;-117.032;2023-05-11T08:29:57;99538.36;;;22.27;41.63
60646;BME280;46462;32.608;-117.032;2023-05-11T08:32:27;99537.89;;;22.37;41.37
60646;BME280;46462;32.608;-117.032;2023-05-11T08:34:58;99537.94;;;22.24;41.65
60646;BME280;46462;32.608;-117.032;2023-05-11T08:37:29;99538.82;;;22.27;41.54
60646;BME280;46462;32.608;-117.032;2023-05-11T08:40:00;99533.05;;;22.25;41.57
60646;BME280;46462;32.608;-117.032;2023-05-11T08:42:32;99533.02;;;22.25;41.53
60646;BME280;46462;32.608;-117.032;2023-05-11T08:45:02;99531.54;;;22.26;41.46
60646;BME280;46462;32.608;-117.032;2023-05-11T08:47:33;99526.78;;;22.25;41.45
60646;BME280;46462;32.608;-117.032;2023-05-11T08:50:07;99523.91;;;22.21;41.53
60646;BME280;46462;32.608;-117.032;2023-05-11T08:52:37;99523.15;;;22.26;41.38
60646;BME280;46462;32.608;-117.032;2023-05-11T08:55:09;99519.66;;;22.20;41.49
60646;BME280;46462;32.608;-117.032;2023-05-11T08:57:40;99516.54;;;22.20;41.49
60646;BME280;46462;32.608;-117.032;2023-05-11T09:00:10;99513.69;;;22.22;41.37
60646;BME280;46462;32.608;-117.032;2023-05-11T09:02:40;99510.94;;;22.21;41.39
60646;BME280;46462;32.608;-117.032;2023-05-11T09:05:11;99511.49;;;22.20;41.41
60646;BME280;46462;32.608;-117.032;2023-05-11T09:07:42;99512.30;;;22.29;41.15
60646;BME280;46462;32.608;-117.032;2023-05-11T09:10:12;99511.70;;;22.22;41.26
60646;BME280;46462;32.608;-117.032;2023-05-11T09:12:43;99512.00;;;22.21;41.28
60646;BME280;46462;32.608;-117.032;2023-05-11T09:15:13;99512.00;;;22.19;41.30
60646;BME280;46462;32.608;-117.032;2023-05-11T09:17:44;99512.01;;;22.23;41.19
60646;BME280;46462;32.608;-117.032;2023-05-11T09:20:15;99508.69;;;22.08;41.50
60646;BME280;46462;32.608;-117.032;2023-05-11T09:22:46;99506.38;;;22.11;41.43
60646;BME280;46462;32.608;-117.032;2023-05-11T09:25:16;99503.76;;;22.17;41.25
60646;BME280;46462;32.608;-117.032;2023-05-11T09:27:47;99504.04;;;22.07;41.46
60646;BME280;46462;32.608;-117.032;2023-05-11T09:30:19;99500.76;;;22.09;41.38
60646;BME280;46462;32.608;-117.032;2023-05-11T09:32:50;99496.46;;;22.14;41.27
60646;BME280;46462;32.608;-117.032;2023-05-11T09:35:21;99496.50;;;22.12;41.28
60646;BME280;46462;32.608;-117.032;2023-05-11T09:37:58;99495.20;;;22.12;41.27
60646;BME280;46462;32.608;-117.032;2023-05-11T09:40:21;99491.95;;;22.12;41.23
60646;BME280;46462;32.608;-117.032;2023-05-11T09:42:51;99491.78;;;22.11;41.20
60646;BME280;46462;32.608;-117.032;2023-05-11T09:47:53;99488.40;;;22.10;41.17
60646;BME280;46462;32.608;-117.032;2023-05-11T09:50:24;99488.71;;;22.00;41.37
60646;BME280;46462;32.608;-117.032;2023-05-11T09:52:54;99487.48;;;22.01;41.34
60646;BME280;46462;32.608;-117.032;2023-05-11T09:55:25;99488.04;;;22.00;41.35
60646;BME280;46462;32.608;-117.032;2023-05-11T09:57:57;99484.56;;;22.02;41.28
60646;BME280;46462;32.608;-117.032;2023-05-11T10:00:26;99483.43;;;22.01;41.25
60646;BME280;46462;32.608;-117.032;2023-05-11T10:03:02;99480.50;;;22.03;41.22
60646;BME280;46462;32.608;-117.032;2023-05-11T10:05:30;99481.58;;;22.00;41.24
60646;BME280;46462;32.608;-117.032;2023-05-11T10:08:00;99481.76;;;22.08;41.09
60646;BME280;46462;32.608;-117.032;2023-05-11T10:10:32;99479.95;;;22.13;40.97
60646;BME280;46462;32.608;-117.032;2023-05-11T10:13:01;99476.47;;;22.03;41.12
60646;BME280;46462;32.608;-117.032;2023-05-11T10:15:32;99475.66;;;22.11;40.97
60646;BME280;46462;32.608;-117.032;2023-05-11T10:18:02;99475.99;;;22.04;41.06
60646;BME280;46462;32.608;-117.032;2023-05-11T10:20:32;99479.22;;;22.08;40.98
60646;BME280;46462;32.608;-117.032;2023-05-11T10:23:04;99479.51;;;22.01;41.04
60646;BME280;46462;32.608;-117.032;2023-05-11T10:25:34;99483.42;;;22.01;41.08
60646;BME280;46462;32.608;-117.032;2023-05-11T10:28:05;99482.64;;;22.01;41.06
60646;BME280;46462;32.608;-117.032;2023-05-11T10:30:36;99481.48;;;21.98;41.10
60646;BME280;46462;32.608;-117.032;2023-05-11T10:33:06;99479.11;;;21.97;41.08
60646;BME280;46462;32.608;-117.032;2023-05-11T10:35:37;99473.56;;;21.99;41.02
60646;BME280;46462;32.608;-117.032;2023-05-11T10:38:08;99468.60;;;21.98;41.06
60646;BME280;46462;32.608;-117.032;2023-05-11T10:40:40;99469.56;;;21.96;41.05
60646;BME280;46462;32.608;-117.032;2023-05-11T10:43:23;99469.97;;;21.93;41.14
60646;BME280;46462;32.608;-117.032;2023-05-11T10:45:48;99465.92;;;21.88;41.16
60646;BME280;46462;32.608;-117.032;2023-05-11T10:50:53;99464.99;;;21.94;41.05
60646;BME280;46462;32.608;-117.032;2023-05-11T10:53:25;99462.55;;;21.87;41.14
60646;BME280;46462;32.608;-117.032;2023-05-11T10:55:56;99461.62;;;21.85;41.18
60646;BME280;46462;32.608;-117.032;2023-05-11T10:58:16;99464.33;;;21.87;41.11
60646;BME280;46462;32.608;-117.032;2023-05-11T11:03:15;99462.77;;;21.91;41.01
60646;BME280;46462;32.608;-117.032;2023-05-11T11:05:45;99461.79;;;21.89;41.04
60646;BME280;46462;32.608;-117.032;2023-05-11T11:08:16;99459.59;;;21.85;41.10
60646;BME280;46462;32.608;-117.032;2023-05-11T11:10:47;99463.63;;;21.84;41.09
60646;BME280;46462;32.608;-117.032;2023-05-11T11:13:18;99462.78;;;21.85;41.08
60646;BME280;46462;32.608;-117.032;2023-05-11T11:18:20;99462.30;;;21.83;41.09
60646;BME280;46462;32.608;-117.032;2023-05-11T11:20:51;99464.63;;;21.86;40.99
60646;BME280;46462;32.608;-117.032;2023-05-11T11:25:52;99460.55;;;21.80;41.09
60646;BME280;46462;32.608;-117.032;2023-05-11T11:28:22;99458.26;;;21.83;41.03
60646;BME280;46462;32.608;-117.032;2023-05-11T11:33:31;99457.17;;;21.84;40.96
60646;BME280;46462;32.608;-117.032;2023-05-11T11:35:54;99453.52;;;21.81;41.00
60646;BME280;46462;32.608;-117.032;2023-05-11T11:38:25;99453.06;;;21.74;41.12
60646;BME280;46462;32.608;-117.032;2023-05-11T11:40:55;99451.22;;;21.76;41.08
60646;BME280;46462;32.608;-117.032;2023-05-11T11:43:31;99446.15;;;21.78;41.01
60646;BME280;46462;32.608;-117.032;2023-05-11T11:45:59;99443.06;;;21.75;41.05
60646;BME280;46462;32.608;-117.032;2023-05-11T11:48:32;99445.92;;;21.77;41.02
60646;BME280;46462;32.608;-117.032;2023-05-11T11:51:04;99447.79;;;21.74;41.08
60646;BME280;46462;32.608;-117.032;2023-05-11T11:56:00;99446.55;;;21.80;40.91
60646;BME280;46462;32.608;-117.032;2023-05-11T12:01:02;99448.27;;;21.71;41.05
60646;BME280;46462;32.608;-117.032;2023-05-11T12:03:33;99446.80;;;21.75;40.98
60646;BME280;46462;32.608;-117.032;2023-05-11T12:06:05;99446.00;;;21.78;40.87
60646;BME280;46462;32.608;-117.032;2023-05-11T12:08:34;99443.75;;;21.71;41.00
60646;BME280;46462;32.608;-117.032;2023-05-11T12:11:05;99444.78;;;21.77;40.87
60646;BME280;46462;32.608;-117.032;2023-05-11T12:13:35;99447.15;;;21.76;40.86
60646;BME280;46462;32.608;-117.032;2023-05-11T12:16:10;99447.50;;;21.75;40.88
60646;BME280;46462;32.608;-117.032;2023-05-11T12:18:37;99448.69;;;21.74;40.89
60646;BME280;46462;32.608;-117.032;2023-05-11T12:23:38;99447.19;;;21.71;40.94
60646;BME280;46462;32.608;-117.032;2023-05-11T12:26:09;99452.12;;;21.74;40.84
60646;BME280;46462;32.608;-117.032;2023-05-11T12:28:39;99454.05;;;21.69;40.96
60646;BME280;46462;32.608;-117.032;2023-05-11T12:31:10;99453.97;;;21.74;40.83
60646;BME280;46462;32.608;-117.032;2023-05-11T12:33:45;99453.51;;;21.69;40.95
60646;BME280;46462;32.608;-117.032;2023-05-11T12:36:14;99452.86;;;21.73;40.85
60646;BME280;46462;32.608;-117.032;2023-05-11T12:38:44;99453.67;;;21.73;40.84
60646;BME280;46462;32.608;-117.032;2023-05-11T12:41:18;99450.02;;;21.63;41.03
60646;BME280;46462;32.608;-117.032;2023-05-11T12:43:44;99449.84;;;21.61;41.04
60646;BME280;46462;32.608;-117.032;2023-05-11T12:46:15;99451.36;;;21.65;40.97
60646;BME280;46462;32.608;-117.032;2023-05-11T12:48:46;99454.50;;;21.62;41.02
60646;BME280;46462;32.608;-117.032;2023-05-11T12:53:47;99456.11;;;21.62;41.01
60646;BME280;46462;32.608;-117.032;2023-05-11T12:56:17;99454.86;;;21.63;40.99
60646;BME280;46462;32.608;-117.032;2023-05-11T12:58:48;99457.13;;;21.62;41.00
60646;BME280;46462;32.608;-117.032;2023-05-11T13:01:23;99461.01;;;21.72;40.76
60646;BME280;46462;32.608;-117.032;2023-05-11T13:03:50;99459.74;;;21.62;40.97
60646;BME280;46462;32.608;-117.032;2023-05-11T13:06:20;99466.02;;;21.66;40.85
60646;BME280;46462;32.608;-117.032;2023-05-11T13:08:51;99463.84;;;21.54;41.07
60646;BME280;46462;32.608;-117.032;2023-05-11T13:11:23;99467.15;;;21.62;40.94
60646;BME280;46462;32.608;-117.032;2023-05-11T13:13:54;99469.28;;;21.65;40.86
60646;BME280;46462;32.608;-117.032;2023-05-11T13:16:25;99467.79;;;21.55;41.05